Time;durP1;ratioP1;P1;durP2;ratioP2;P2;SDS_P1;SDS_P2;PMS_P1;PMS_P2;Temp;Humidity;BMP_temperature;BMP_pressure;BME280_temperature;BME280_humidity;BME280_pressure;Samples;Min_cycle;Max_cycle;Signal;HPM_P1;HPM_P2
2023/04/22 00:04:10;;;;;;;4.20;2.50;;;;;;;12.64;75.75;99766.72;12787891;22;99355;-79
2023/04/22 00:09:14;;;;;;;5.10;2.67;;;;;;;12.77;75.99;99762.50;12787003;22;99159;-79
2023/04/22 00:14:19;;;;;;;5.28;2.88;;;;;;;12.79;75.28;99766.72;12789089;22;99258;-79
2023/04/22 00:19:22;;;;;;;8.32;3.03;;;;;;;12.53;75.98;99772.59;12790254;22;98872;-79
2023/04/22 00:24:25;;;;;;;3.88;2.50;;;;;;;12.57;76.06;99773.28;12789312;22;98861;-79
2023/04/22 00:29:30;;;;;;;5.15;3.08;;;;;;;12.17;76.46;99779.84;12788845;22;98825;-78
2023/04/22 00:34:33;;;;;;;4.00;2.70;;;;;;;12.34;76.09;99778.03;12788124;22;99187;-79
2023/04/22 00:39:38;;;;;;;6.40;2.85;;;;;;;12.20;76.38;99783.19;12789752;22;98852;-79
2023/04/22 00:44:43;;;;;;;;;;;;;;;12.04;76.73;99792.00;12790479;22;97940;-79
2023/04/22 00:49:49;;;;;;;3.97;2.88;;;;;;;12.07;77.15;99790.06;12788927;22;99218;-79
2023/04/22 00:54:52;;;;;;;7.90;4.35;;;;;;;12.47;76.45;99786.13;12789866;22;99392;-79
2023/04/22 00:59:57;;;;;;;34.50;5.45;;;;;;;12.61;76.41;99790.63;12790783;22;98859;-79
2023/04/22 01:05:01;;;;;;;37.95;5.82;;;;;;;12.76;75.55;99797.78;12790154;22;99359;-79
2023/04/22 01:10:05;;;;;;;16.55;3.95;;;;;;;12.71;75.56;99790.09;12792003;22;98898;-79
2023/04/22 01:15:11;;;;;;;41.03;5.03;;;;;;;12.62;75.24;99798.47;12788764;22;99092;-78
2023/04/22 01:20:14;;;;;;;6.93;3.10;;;;;;;12.68;75.41;99802.59;12789551;22;99231;-79
2023/04/22 01:25:19;;;;;;;13.93;3.92;;;;;;;12.41;76.42;99797.03;12787632;22;99081;-79
2023/04/22 01:30:22;;;;;;;5.88;3.03;;;;;;;12.14;75.93;99795.84;12789192;22;99201;-79
2023/04/22 01:35:25;;;;;;;5.03;3.17;;;;;;;12.06;76.12;99800.69;12788335;22;99059;-79
2023/04/22 01:40:31;;;;;;;4.63;3.10;;;;;;;12.07;77.13;99807.66;12790044;22;101610;-79
2023/04/22 01:45:35;;;;;;;4.20;2.80;;;;;;;12.23;76.40;99814.69;12788763;22;99038;-79
2023/04/22 01:50:38;;;;;;;5.00;2.90;;;;;;;12.26;75.95;99822.44;12790807;22;98825;-79
2023/04/22 01:55:43;;;;;;;6.82;3.10;;;;;;;12.16;75.54;99821.22;12789677;22;99008;-79
2023/04/22 02:00:47;;;;;;;5.90;3.13;;;;;;;12.25;75.48;99822.53;12790406;22;99147;-78
2023/04/22 02:05:50;;;;;;;5.60;2.83;;;;;;;12.34;75.21;99817.59;12789883;22;99076;-79
2023/04/22 02:10:55;;;;;;;7.28;3.40;;;;;;;12.06;75.87;99829.69;12789111;22;98880;-79
2023/04/22 02:15:58;;;;;;;6.57;3.00;;;;;;;12.08;76.11;99831.31;12786875;22;98875;-78
2023/04/22 02:21:02;;;;;;;6.03;3.00;;;;;;;12.20;76.07;99840.38;12790364;22;98786;-79
2023/04/22 02:26:07;;;;;;;7.85;3.30;;;;;;;12.13;75.79;99842.47;12787961;22;99008;-79
2023/04/22 02:31:10;;;;;;;;;;;;;;;12.08;76.38;99844.50;12787532;22;99166;-79
2023/04/22 02:36:13;;;;;;;6.07;3.42;;;;;;;11.93;76.32;99844.44;12789704;22;98960;-79
2023/04/22 02:41:18;;;;;;;5.05;3.22;;;;;;;12.01;76.68;99842.28;12789861;22;98760;-79
2023/04/22 02:46:21;;;;;;;4.05;3.28;;;;;;;11.95;76.18;99845.22;12789261;22;99178;-79
2023/04/22 02:51:25;;;;;;;6.25;3.22;;;;;;;11.78;77.13;99845.22;12791385;22;99201;-79
2023/04/22 02:56:30;;;;;;;6.78;3.58;;;;;;;11.68;77.04;99844.00;12790011;22;98867;-79
2023/04/22 03:01:35;;;;;;;4.47;3.40;;;;;;;11.56;76.99;99844.63;12790422;22;98684;-79
2023/04/22 03:06:38;;;;;;;6.55;3.35;;;;;;;11.51;77.48;99857.16;12787950;22;98940;-78
2023/04/22 03:11:43;;;;;;;3.88;3.22;;;;;;;11.27;77.62;99852.16;12788251;22;99443;-79
2023/04/22 03:16:46;;;;;;;5.18;3.67;;;;;;;11.15;78.13;99852.75;12788461;22;99023;-78
2023/04/22 03:21:50;;;;;;;6.07;3.22;;;;;;;11.14;78.48;99860.75;12790203;22;99009;-79
2023/04/22 03:26:55;;;;;;;6.03;2.85;;;;;;;11.01;78.07;99860.44;12789953;22;99053;-79
2023/04/22 03:31:58;;;;;;;7.00;2.92;;;;;;;11.01;77.92;99865.69;12788552;22;98272;-79
2023/04/22 03:37:01;;;;;;;3.80;2.78;;;;;;;10.91;78.45;99874.97;12790171;22;98212;-79
2023/04/22 03:42:06;;;;;;;5.55;2.80;;;;;;;10.94;78.86;99872.19;12790982;22;99234;-79
2023/04/22 03:47:09;;;;;;;5.45;2.78;;;;;;;11.07;78.15;99875.09;12790315;22;99120;-79
2023/04/22 03:52:13;;;;;;;4.28;2.83;;;;;;;11.03;78.10;99873.53;12789152;22;98931;-79
2023/04/22 03:57:18;;;;;;;8.07;3.13;;;;;;;10.97;78.64;99874.66;12787857;22;98920;-79
2023/04/22 04:02:21;;;;;;;5.10;3.00;;;;;;;10.87;78.25;99870.75;12788889;22;99175;-79
2023/04/22 04:07:25;;;;;;;5.47;3.03;;;;;;;10.78;79.46;99873.84;12788589;22;97807;-79
2023/04/22 04:12:29;;;;;;;8.05;3.38;;;;;;;10.70;78.68;99875.09;12788616;22;98907;-79
2023/04/22 04:17:33;;;;;;;6.82;3.35;;;;;;;10.76;78.57;99891.47;12789379;22;98692;-79
2023/04/22 04:22:36;;;;;;;4.18;2.50;;;;;;;10.73;79.09;99883.69;12789207;22;98946;-78
2023/04/22 04:27:41;;;;;;;5.43;2.80;;;;;;;10.74;79.90;99877.53;12787337;22;99796;-79
2023/04/22 04:32:44;;;;;;;5.22;2.83;;;;;;;10.69;79.32;99879.53;12788877;22;98920;-79
2023/04/22 04:37:49;;;;;;;3.90;2.70;;;;;;;10.69;79.62;99886.56;12789131;22;98980;-79
2023/04/22 04:42:54;;;;;;;5.95;3.20;;;;;;;10.65;80.03;99891.09;12788802;22;98826;-79
2023/04/22 04:47:59;;;;;;;5.90;3.47;;;;;;;10.62;80.22;99899.16;12786819;22;98966;-79
2023/04/22 04:53:02;;;;;;;6.47;3.70;;;;;;;10.62;79.72;99898.28;12788356;22;99083;-79
2023/04/22 04:58:07;;;;;;;5.00;3.95;;;;;;;10.57;80.52;99897.63;12788106;22;98996;-79
2023/04/22 05:03:10;;;;;;;6.28;4.82;;;;;;;10.52;80.67;99900.50;12787695;22;98998;-79
2023/04/22 05:08:14;;;;;;;7.15;4.32;;;;;;;10.54;81.32;99905.69;12791228;22;98956;-79
2023/04/22 05:13:18;;;;;;;8.20;5.20;;;;;;;10.63;80.15;99913.13;12788360;22;99067;-78
2023/04/22 05:18:22;;;;;;;7.32;4.60;;;;;;;10.67;80.29;99904.19;12789208;22;99033;-79
2023/04/22 05:23:26;;;;;;;7.43;4.95;;;;;;;10.68;81.40;99917.28;12790321;22;99278;-79
2023/04/22 05:28:30;;;;;;;8.40;4.95;;;;;;;10.74;81.38;99926.66;12790854;22;99011;-79
2023/04/22 05:33:33;;;;;;;7.03;5.10;;;;;;;10.61;81.22;99917.63;12790511;22;98850;-78
2023/04/22 05:38:37;;;;;;;8.98;4.78;;;;;;;10.68;81.10;99934.84;12789731;22;98526;-79
2023/04/22 05:43:41;;;;;;;6.90;4.35;;;;;;;10.60;81.56;99940.44;12791268;22;97989;-79
2023/04/22 05:48:45;;;;;;;5.57;4.18;;;;;;;10.61;81.00;99955.31;12791091;22;98802;-79
2023/04/22 05:53:48;;;;;;;8.25;4.38;;;;;;;10.68;80.76;99961.16;12788159;22;99229;-79
2023/04/22 05:58:53;;;;;;;6.50;3.65;;;;;;;10.71;81.35;99972.41;12791084;22;98943;-79
2023/04/22 06:03:57;;;;;;;5.35;3.95;;;;;;;10.76;81.05;99974.81;12790752;22;98897;-79
2023/04/22 06:09:00;;;;;;;6.20;4.20;;;;;;;10.92;80.63;99976.69;12790950;22;99170;-79
2023/04/22 06:14:05;;;;;;;6.85;4.10;;;;;;;10.94;80.34;99990.63;12791449;22;99055;-79
2023/04/22 06:19:08;;;;;;;5.15;4.20;;;;;;;10.93;80.59;99993.34;12789965;22;98858;-79
2023/04/22 06:24:12;;;;;;;5.40;3.65;;;;;;;10.99;80.37;99998.34;12788648;22;99103;-79
2023/04/22 06:29:17;;;;;;;5.75;3.45;;;;;;;11.10;80.70;100009.25;12789008;22;98828;-79
2023/04/22 06:34:20;;;;;;;4.10;2.97;;;;;;;11.25;80.56;100017.31;12790174;22;98819;-79
2023/04/22 06:39:23;;;;;;;5.57;3.00;;;;;;;11.33;80.27;100020.47;12790878;22;98843;-79
2023/04/22 06:44:28;;;;;;;5.45;3.42;;;;;;;11.39;79.21;100025.44;12790607;22;99168;-79
2023/04/22 06:49:31;;;;;;;;;;;;;;;11.27;80.25;100036.53;12790851;22;100436;-79
2023/04/22 06:54:34;;;;;;;5.38;3.15;;;;;;;11.45;79.19;100042.75;12790286;22;98951;-79
2023/04/22 06:59:39;;;;;;;6.75;2.90;;;;;;;11.41;78.67;100041.16;12790028;22;99244;-79
2023/04/22 07:04:44;;;;;;;4.93;2.63;;;;;;;11.90;78.71;100058.16;12790998;22;98961;-79
2023/04/22 07:09:47;;;;;;;4.20;2.50;;;;;;;12.06;77.73;100059.13;12790140;22;99017;-79
2023/04/22 07:14:52;;;;;;;4.75;2.90;;;;;;;12.25;77.71;100073.13;12789916;22;98850;-79
2023/04/22 07:19:55;;;;;;;7.03;3.20;;;;;;;12.28;77.35;100063.28;12788872;22;99090;-79
2023/04/22 07:24:59;;;;;;;4.22;2.80;;;;;;;12.48;77.60;100071.06;12789843;22;99226;-79
2023/04/22 07:30:04;;;;;;;2.60;2.05;;;;;;;13.15;75.17;100076.41;12788426;22;97865;-79
2023/04/22 07:35:08;;;;;;;4.03;2.10;;;;;;;13.52;74.13;100073.47;12788431;22;99146;-79
2023/04/22 07:40:12;;;;;;;3.90;1.98;;;;;;;13.42;74.16;100074.94;12788316;22;99150;-79
2023/04/22 07:45:18;;;;;;;4.95;2.40;;;;;;;13.29;74.30;100073.84;12789103;22;99467;-79
2023/04/22 07:50:21;;;;;;;4.32;3.10;;;;;;;13.82;73.04;100070.09;12789100;22;98840;-79
2023/04/22 07:55:25;;;;;;;5.28;3.47;;;;;;;14.86;70.33;100075.47;12787738;22;99002;-78
2023/04/22 08:00:29;;;;;;;6.88;4.20;;;;;;;15.33;69.64;100065.50;12783457;22;99173;-78
2023/04/22 08:05:32;;;;;;;;;;;;;;;15.36;68.70;100070.63;12788997;22;98963;-79
2023/04/22 08:10:36;;;;;;;6.10;3.13;;;;;;;15.69;68.61;100076.47;12784479;22;98877;-79
2023/04/22 08:15:40;;;;;;;4.97;2.78;;;;;;;16.47;65.98;100074.94;12785773;22;98879;-77
2023/04/22 08:20:43;;;;;;;;;;;;;;;17.43;63.82;100075.34;12786903;22;97930;-78
2023/04/22 08:25:47;;;;;;;6.07;3.42;;;;;;;17.81;63.04;100081.50;12787014;22;98959;-78
2023/04/22 08:30:52;;;;;;;4.15;2.60;;;;;;;18.71;60.99;100084.56;12787367;22;99351;-79
2023/04/22 08:35:55;;;;;;;;;;;;;;;17.53;61.77;100082.63;12786891;22;98967;-79
2023/04/22 08:40:59;;;;;;;6.95;2.88;;;;;;;17.08;63.76;100093.75;12790197;22;98877;-79
2023/04/22 08:46:04;;;;;;;4.20;2.65;;;;;;;17.20;63.05;100090.25;12788538;22;99177;-79
2023/04/22 08:51:08;;;;;;;6.43;2.53;;;;;;;17.87;60.78;100087.22;12792706;22;99590;-80
2023/04/22 08:56:13;;;;;;;4.63;2.45;;;;;;;18.38;59.64;100090.56;12790267;22;98886;-79
2023/04/22 09:01:18;;;;;;;6.00;2.75;;;;;;;18.17;58.81;100094.81;12787655;22;99292;-80
2023/04/22 09:06:22;;;;;;;4.15;2.00;;;;;;;18.07;59.64;100089.28;12790597;22;99355;-79
2023/04/22 09:11:27;;;;;;;4.00;2.17;;;;;;;18.03;60.16;100092.28;12790432;22;99176;-79
2023/04/22 09:16:31;;;;;;;5.05;2.78;;;;;;;18.53;58.66;100104.59;12791843;22;98927;-79
2023/04/22 09:21:35;;;;;;;5.00;2.35;;;;;;;18.78;57.54;100096.47;12792277;22;98989;-79
2023/04/22 09:26:40;;;;;;;5.50;2.40;;;;;;;17.30;61.30;100101.97;12791368;22;98958;-80
2023/04/22 09:31:49;;;;;;;6.20;2.30;;;;;;;18.23;60.31;100097.00;12782462;22;99186;-73
2023/04/22 09:36:54;;;;;;;7.03;2.90;;;;;;;19.76;57.30;100091.41;12784808;22;98938;-75
2023/04/22 09:41:57;;;;;;;;;;;;;;;18.49;59.36;100093.31;12791818;22;99007;-77
2023/04/22 09:47:02;;;;;;;5.32;2.90;;;;;;;18.07;61.20;100102.59;12789681;22;99085;-77
2023/04/22 09:52:06;;;;;;;6.43;2.65;;;;;;;19.09;60.56;100101.97;12788971;22;100374;-78
2023/04/22 09:57:14;;;;;;;9.77;3.40;;;;;;;18.56;60.93;100094.53;12789645;22;98907;-78
2023/04/22 10:02:18;;;;;;;6.95;2.97;;;;;;;20.59;54.95;100097.94;12784913;22;98887;-77
2023/04/22 10:07:22;;;;;;;8.13;3.40;;;;;;;20.03;56.77;100095.38;12783726;22;98923;-78
2023/04/22 10:12:27;;;;;;;7.90;4.07;;;;;;;18.92;58.98;100102.44;12788364;22;98965;-77
2023/04/22 10:17:40;;;;;;;9.63;4.35;;;;;;;18.16;61.43;100103.75;12785241;22;98963;-76
2023/04/22 10:22:44;;;;;;;7.97;4.22;;;;;;;18.45;61.94;100112.28;12790638;22;99004;-77
2023/04/22 10:27:54;;;;;;;9.57;3.78;;;;;;;20.76;55.54;100105.38;12792168;22;98926;-77
2023/04/22 10:33:37;;;;;;;5.80;3.15;;;;;;;21.83;53.21;100098.75;12792262;22;99225;-77
2023/04/22 10:39:02;;;;;;;8.20;3.58;;;;;;;22.42;51.09;100095.13;12793170;22;98959;-77
2023/04/22 10:44:06;;;;;;;7.83;3.20;;;;;;;21.41;53.61;100093.47;12791603;22;99046;-77
2023/04/22 10:49:14;;;;;;;8.82;4.07;;;;;;;20.62;55.74;100097.69;12793330;22;98974;-77
2023/04/22 10:54:51;;;;;;;12.60;5.50;;;;;;;19.42;55.61;100095.91;12792593;22;98130;-78
2023/04/22 10:59:57;;;;;;;15.27;6.95;;;;;;;18.88;57.37;100100.13;12792414;22;99026;-77
2023/04/22 11:05:20;;;;;;;11.40;5.68;;;;;;;20.17;54.16;100103.13;12792440;22;99059;-77
2023/04/22 11:10:39;;;;;;;7.57;3.10;;;;;;;19.38;53.98;100112.22;12792999;22;99021;-77
2023/04/22 11:15:47;;;;;;;9.32;2.50;;;;;;;19.83;52.27;100098.81;12793187;22;98927;-78
2023/04/22 11:20:54;;;;;;;5.20;2.00;;;;;;;19.25;52.78;100102.50;12791542;22;99155;-77
2023/04/22 11:26:00;;;;;;;9.55;1.80;;;;;;;19.43;53.14;100105.59;12790410;22;99174;-77
2023/04/22 11:31:05;;;;;;;6.22;2.53;;;;;;;19.59;53.86;100114.13;12789422;22;99113;-77
2023/04/22 11:36:12;;;;;;;5.07;1.85;;;;;;;19.36;51.31;100108.81;12788747;22;98938;-77
2023/04/22 11:41:20;;;;;;;7.38;2.25;;;;;;;19.52;53.72;100112.91;12792405;22;98357;-77
2023/04/22 11:46:37;;;;;;;5.50;1.73;;;;;;;19.71;52.86;100110.47;12792423;22;99279;-77
2023/04/22 11:51:54;;;;;;;5.47;1.75;;;;;;;20.06;51.16;100104.97;12788318;22;99080;-76
2023/04/22 11:56:57;;;;;;;5.68;2.00;;;;;;;20.14;50.71;100111.41;12788534;22;99011;-76
2023/04/22 12:02:00;;;;;;;10.75;7.28;;;;;;;20.13;51.03;100112.34;12788456;22;98910;-75
2023/04/22 12:07:05;;;;;;;5.75;2.90;;;;;;;19.96;52.64;100120.06;12790803;22;98868;-77
2023/04/22 12:12:09;;;;;;;34.25;20.77;;;;;;;20.45;50.83;100109.78;12785762;22;99068;-76
2023/04/22 12:17:12;;;;;;;11.57;6.67;;;;;;;20.44;51.73;100110.75;12787456;22;98317;-77
2023/04/22 12:22:25;;;;;;;8.25;3.08;;;;;;;20.77;51.71;100113.31;12789931;22;98953;-77
2023/04/22 12:27:30;;;;;;;7.00;2.97;;;;;;;20.50;52.25;100118.25;12789425;22;97981;-77
2023/04/22 12:32:33;;;;;;;12.15;3.28;;;;;;;20.33;52.19;100113.44;12788925;22;98944;-77
2023/04/22 12:37:38;;;;;;;7.15;2.60;;;;;;;20.26;51.64;100118.41;12787875;22;97970;-76
2023/04/22 12:42:41;;;;;;;6.30;2.55;;;;;;;20.52;50.36;100118.13;12787929;22;98884;-77
2023/04/22 12:47:45;;;;;;;6.85;2.75;;;;;;;20.56;50.29;100106.22;12790184;22;99091;-77
2023/04/22 12:52:50;;;;;;;6.65;2.13;;;;;;;19.93;50.53;100110.47;12790754;22;98170;-76
2023/04/22 12:57:54;;;;;;;7.78;4.18;;;;;;;19.99;51.77;100131.34;12789951;22;99162;-77
2023/04/22 13:02:57;;;;;;;7.40;2.60;;;;;;;20.07;50.55;100123.56;12792437;22;99275;-78
2023/04/22 13:08:02;;;;;;;6.97;1.90;;;;;;;20.27;50.26;100133.47;12784901;22;99041;-77
2023/04/22 13:13:10;;;;;;;6.15;1.75;;;;;;;19.75;50.13;100130.59;12788897;22;99106;-77
2023/04/22 13:18:21;;;;;;;6.50;1.98;;;;;;;19.61;51.05;100135.34;12792333;22;99028;-76
2023/04/22 13:23:27;;;;;;;6.32;1.58;;;;;;;19.69;51.13;100139.13;12796308;22;97862;-77
2023/04/22 13:28:30;;;;;;;7.28;2.00;;;;;;;19.69;51.34;100132.91;12790390;22;97813;-77
2023/04/22 13:33:33;;;;;;;7.40;1.77;;;;;;;20.20;50.15;100137.59;12787450;22;98923;-76
2023/04/22 13:38:38;;;;;;;6.72;1.48;;;;;;;20.18;49.83;100130.72;12783832;22;99175;-75
2023/04/22 13:43:41;;;;;;;6.15;1.80;;;;;;;19.81;49.67;100138.16;12789872;22;98968;-76
2023/04/22 13:48:45;;;;;;;4.10;1.30;;;;;;;20.55;49.60;100136.63;12797757;22;98961;-77
2023/04/22 13:53:51;;;;;;;8.68;1.95;;;;;;;17.32;70.40;100142.59;12793982;22;99512;-80
2023/04/22 13:58:55;;;;;;;5.93;1.98;;;;;;;16.50;69.74;100127.84;12793871;22;96988;-80
2023/04/22 14:03:59;;;;;;;;;;;;;;;15.98;72.91;100135.63;12788775;22;97983;-80
2023/04/22 14:09:04;;;;;;;7.65;1.70;;;;;;;16.36;68.88;100134.03;12790636;22;98879;-79
2023/04/22 14:14:08;;;;;;;5.60;1.70;;;;;;;17.10;65.02;100118.44;12790096;22;99011;-79
2023/04/22 14:19:13;;;;;;;7.20;1.50;;;;;;;17.48;64.38;100137.09;12787202;22;99033;-81
2023/04/22 14:24:18;;;;;;;;;;;;;;;17.49;62.23;100147.63;12791651;22;99264;-82
2023/04/22 14:29:21;;;;;;;5.53;1.63;;;;;;;17.67;62.97;100141.03;12789160;22;99153;-82
2023/04/22 14:34:25;;;;;;;6.50;1.67;;;;;;;18.05;59.62;100139.16;12789765;22;98953;-79
2023/04/22 14:39:30;;;;;;;9.48;1.58;;;;;;;18.21;59.27;100136.25;12790529;22;99007;-79
2023/04/22 14:44:33;;;;;;;;;;;;;;;18.52;61.53;100142.88;12793605;22;99034;-80
2023/04/22 14:49:36;;;;;;;5.47;1.70;;;;;;;19.34;56.84;100143.63;12790775;22;97645;-80
2023/04/22 14:54:41;;;;;;;7.03;1.50;;;;;;;19.44;54.19;100138.50;12792375;22;99237;-81
2023/04/22 14:59:45;;;;;;;;;;;;;;;19.42;56.29;100151.97;12787111;22;99113;-80
2023/04/22 15:04:48;;;;;;;9.70;2.08;;;;;;;19.86;54.63;100151.97;12792730;22;98882;-83
2023/04/22 15:09:53;;;;;;;8.85;1.92;;;;;;;19.71;54.47;100158.53;12789971;22;98904;-84
2023/04/22 15:14:57;;;;;;;6.22;1.83;;;;;;;19.92;55.10;100170.19;12796260;22;99520;-81
2023/04/22 15:20:03;;;;;;;8.23;2.28;;;;;;;19.80;55.04;100156.97;12792786;22;96684;-81
2023/04/22 15:25:11;;;;;;;7.15;2.20;;;;;;;19.39;54.40;100153.97;12795529;22;98988;-79
2023/04/22 15:30:14;;;;;;;8.82;1.80;;;;;;;19.68;53.64;100150.78;12793044;22;99416;-79
2023/04/22 15:35:19;;;;;;;3.57;1.50;;;;;;;19.97;53.23;100156.47;12792558;22;98285;-82
2023/04/22 15:40:24;;;;;;;9.45;2.30;;;;;;;20.12;52.25;100156.09;12793918;22;98970;-81
2023/04/22 15:45:27;;;;;;;8.50;1.65;;;;;;;19.98;51.96;100156.34;12794062;22;99071;-79
2023/04/22 15:50:31;;;;;;;8.10;1.98;;;;;;;19.89;50.65;100148.22;12794677;22;99471;-78
2023/04/22 15:55:35;;;;;;;7.10;1.80;;;;;;;19.59;52.76;100171.97;12800329;22;98848;-80
2023/04/22 16:00:39;;;;;;;7.03;2.03;;;;;;;19.86;52.27;100169.81;12792898;22;99001;-78
2023/04/22 16:05:43;;;;;;;;;;;;;;;19.99;51.79;100162.53;12787053;22;98363;-80
2023/04/22 16:10:47;;;;;;;11.18;2.70;;;;;;;19.88;52.17;100166.06;12782261;22;98801;-78
2023/04/22 16:15:51;;;;;;;4.78;1.50;;;;;;;19.46;52.59;100153.41;12788507;22;98924;-78
2023/04/22 16:20:54;;;;;;;8.45;1.92;;;;;;;19.55;54.09;100157.16;12790165;22;97965;-78
2023/04/22 16:26:01;;;;;;;7.22;2.63;;;;;;;19.55;54.22;100158.03;12790572;22;98923;-78
2023/04/22 16:31:04;;;;;;;8.30;2.58;;;;;;;19.33;54.98;100168.63;12788013;22;98951;-76
2023/04/22 16:36:09;;;;;;;5.35;1.92;;;;;;;19.30;55.48;100179.56;12791033;22;99241;-78
2023/04/22 16:41:14;;;;;;;8.27;2.30;;;;;;;19.21;55.65;100173.09;12789908;22;98864;-79
2023/04/22 16:46:17;;;;;;;9.02;2.15;;;;;;;19.20;55.24;100166.03;12791367;22;97932;-79
2023/04/22 16:51:20;;;;;;;7.45;1.70;;;;;;;19.39;53.92;100175.31;12789329;22;98976;-79
2023/04/22 16:56:25;;;;;;;8.50;2.17;;;;;;;19.30;54.15;100184.88;12790555;22;99328;-80
2023/04/22 17:01:30;;;;;;;8.07;2.08;;;;;;;19.29;54.92;100183.16;12792261;22;98843;-79
2023/04/22 17:06:33;;;;;;;6.93;2.65;;;;;;;19.06;55.07;100195.59;12793744;22;98923;-80
2023/04/22 17:11:39;;;;;;;;;;;;;;;18.87;55.51;100202.44;12795661;22;98350;-80
2023/04/22 17:16:42;;;;;;;8.23;1.67;;;;;;;18.75;54.42;100204.16;12795672;22;98969;-79
2023/04/22 17:21:45;;;;;;;7.38;2.60;;;;;;;19.09;54.33;100200.69;12796092;22;99182;-78
2023/04/22 17:26:50;;;;;;;9.02;2.40;;;;;;;19.49;53.25;100201.22;12794674;22;99128;-83
2023/04/22 17:31:54;;;;;;;6.53;1.88;;;;;;;19.51;52.15;100204.59;12794975;22;97394;-81
2023/04/22 17:36:57;;;;;;;9.27;2.10;;;;;;;19.47;51.86;100204.97;12789880;22;96885;-79
2023/04/22 17:42:03;;;;;;;5.05;1.67;;;;;;;19.33;52.32;100210.47;12797022;22;98837;-82
2023/04/22 17:47:06;;;;;;;5.53;1.55;;;;;;;19.27;52.41;100217.13;12793953;22;97807;-83
2023/04/22 17:52:10;;;;;;;8.60;2.20;;;;;;;19.12;52.61;100212.94;12790637;22;98900;-81
2023/04/22 17:57:16;;;;;;;6.32;2.05;;;;;;;18.94;53.75;100225.84;12791723;22;98932;-78
2023/04/22 18:02:21;;;;;;;12.95;4.20;;;;;;;18.82;54.29;100228.56;12795057;22;99065;-79
2023/04/22 18:07:25;;;;;;;88.78;67.40;;;;;;;18.82;54.23;100220.56;12797485;22;97874;-79
2023/04/22 18:12:34;;;;;;;949.30;678.70;;;;;;;18.83;54.06;100224.94;12791858;22;98955;-80
2023/04/22 18:17:37;;;;;;;231.90;185.45;;;;;;;18.91;53.83;100226.06;12797455;22;97935;-78
2023/04/22 18:22:41;;;;;;;67.55;44.30;;;;;;;18.84;53.73;100223.97;12789793;22;97854;-80
2023/04/22 18:27:46;;;;;;;28.83;16.95;;;;;;;18.71;53.15;100221.38;12790239;22;99395;-83
2023/04/22 18:32:52;;;;;;;26.67;16.58;;;;;;;18.65;53.45;100243.13;12796378;22;98498;-77
2023/04/22 18:37:56;;;;;;;24.10;12.70;;;;;;;18.53;53.34;100238.69;12800052;22;98985;-81
2023/04/22 18:43:01;;;;;;;134.32;104.60;;;;;;;18.37;53.50;100242.56;12801960;22;99249;-83
2023/04/22 18:48:04;;;;;;;151.20;97.28;;;;;;;18.29;54.50;100253.75;12803176;22;99103;-81
2023/04/22 18:53:15;;;;;;;51.38;34.65;;;;;;;18.23;54.92;100256.00;12802026;22;99253;-78
2023/04/22 18:58:22;;;;;;;32.60;19.15;;;;;;;18.19;55.24;100266.84;12802337;22;98828;-77
2023/04/22 19:03:26;;;;;;;19.13;10.82;;;;;;;18.09;55.44;100259.59;12803362;22;101386;-76
2023/04/22 19:08:30;;;;;;;9.48;3.15;;;;;;;17.92;55.33;100267.94;12802862;22;99367;-76
2023/04/22 19:13:35;;;;;;;9.73;3.10;;;;;;;17.84;55.77;100271.13;12805289;22;97218;-76
2023/04/22 19:18:38;;;;;;;9.20;3.17;;;;;;;17.81;56.56;100289.97;12805363;22;98033;-77
2023/04/22 19:23:42;;;;;;;10.60;2.95;;;;;;;17.79;57.22;100296.38;12801694;22;98007;-76
2023/04/22 19:28:47;;;;;;;10.52;2.35;;;;;;;17.74;57.75;100301.16;12801284;22;99250;-76
2023/04/22 19:33:50;;;;;;;10.18;2.78;;;;;;;17.60;58.27;100304.75;12801570;22;98863;-76
2023/04/22 19:38:54;;;;;;;8.95;2.65;;;;;;;17.51;58.96;100301.84;12801346;22;99208;-77
2023/04/22 19:43:58;;;;;;;10.65;3.20;;;;;;;17.48;59.04;100308.25;12801338;22;99221;-76
2023/04/22 19:49:02;;;;;;;;;;;;;;;17.44;60.43;100320.00;12802836;22;98103;-76
2023/04/22 19:54:07;;;;;;;6.65;2.65;;;;;;;17.36;59.91;100314.34;12800974;22;98059;-78
2023/04/22 19:59:13;;;;;;;13.02;3.08;;;;;;;17.23;60.68;100316.09;12799146;22;98945;-77
2023/04/22 20:04:17;;;;;;;8.75;2.83;;;;;;;17.11;61.82;100332.00;12796902;22;99174;-79
2023/04/22 20:09:21;;;;;;;8.37;2.70;;;;;;;16.97;62.94;100335.53;12795780;22;99568;-79
2023/04/22 20:14:26;;;;;;;10.90;3.13;;;;;;;16.95;62.86;100348.06;12802796;22;98910;-76
2023/04/22 20:19:30;;;;;;;11.52;3.22;;;;;;;16.99;63.20;100355.78;12806136;22;99515;-77
2023/04/22 20:24:39;;;;;;;8.30;3.00;;;;;;;16.94;63.30;100359.69;12807376;22;98977;-77
2023/04/22 20:29:45;;;;;;;11.48;4.10;;;;;;;16.81;63.75;100372.88;12801422;22;99366;-79
2023/04/22 20:34:48;;;;;;;10.55;4.07;;;;;;;16.75;64.32;100375.94;12801517;22;99115;-76
2023/04/22 20:39:53;;;;;;;10.45;3.80;;;;;;;16.70;64.60;100383.34;12806703;22;99292;-77
2023/04/22 20:44:57;;;;;;;15.40;4.45;;;;;;;16.64;64.91;100380.19;12804563;22;99200;-80
2023/04/22 20:50:00;;;;;;;9.32;3.78;;;;;;;16.60;64.97;100392.81;12804416;22;98589;-78
2023/04/22 20:55:05;;;;;;;12.82;4.65;;;;;;;16.47;65.46;100394.53;12805263;22;99121;-77
2023/04/22 21:00:11;;;;;;;12.07;5.53;;;;;;;16.41;65.98;100391.41;12793373;22;98401;-79
2023/04/22 21:05:14;;;;;;;15.35;5.97;;;;;;;16.40;66.66;100401.19;12788332;22;99011;-81
2023/04/22 21:10:19;;;;;;;17.15;5.03;;;;;;;16.37;67.37;100389.84;12787414;22;99099;-78
2023/04/22 21:15:24;;;;;;;14.97;5.17;;;;;;;16.20;67.15;100393.53;12789308;22;99120;-78
2023/04/22 21:20:31;;;;;;;12.38;3.30;;;;;;;16.29;67.26;100384.16;12786332;22;99073;-76
2023/04/22 21:25:35;;;;;;;10.85;4.57;;;;;;;16.34;67.09;100384.72;12789269;22;99014;-79
2023/04/22 21:30:41;;;;;;;11.13;4.50;;;;;;;16.17;67.79;100387.56;12791930;22;99033;-77
2023/04/22 21:35:44;;;;;;;8.80;3.67;;;;;;;16.18;67.78;100383.94;12791094;22;98979;-76
2023/04/22 21:40:47;;;;;;;11.73;4.13;;;;;;;16.14;68.29;100379.75;12789760;22;98906;-77
2023/04/22 21:45:52;;;;;;;10.52;3.28;;;;;;;16.09;68.55;100372.09;12788331;22;99497;-76
2023/04/22 21:50:55;;;;;;;9.20;3.00;;;;;;;16.06;68.14;100390.00;12789921;22;99191;-77
2023/04/22 21:55:58;;;;;;;9.95;3.13;;;;;;;15.81;69.00;100380.84;12789558;22;99330;-75
2023/04/22 22:01:04;;;;;;;12.40;2.97;;;;;;;15.90;68.91;100387.41;12789145;22;99248;-76
2023/04/22 22:06:07;;;;;;;9.38;2.75;;;;;;;15.98;68.81;100392.25;12787259;22;99064;-77
2023/04/22 22:11:11;;;;;;;8.25;2.75;;;;;;;16.11;68.39;100395.88;12789092;22;99233;-77
2023/04/22 22:16:33;;;;;;;10.85;3.00;;;;;;;16.10;68.34;100397.66;12787804;22;99086;-77
2023/04/22 22:21:36;;;;;;;8.05;2.50;;;;;;;16.14;68.50;100406.31;12789918;22;98982;-76
2023/04/22 22:26:41;;;;;;;11.45;2.75;;;;;;;16.09;69.01;100403.06;12791951;22;100224;-76
2023/04/22 22:31:46;;;;;;;7.47;3.00;;;;;;;16.07;69.16;100397.88;12791970;22;98978;-76
2023/04/22 22:36:49;;;;;;;;;;;;;;;15.90;69.55;100403.31;12791155;22;99051;-76
2023/04/22 22:41:54;;;;;;;10.00;2.63;;;;;;;15.99;69.88;100401.91;12790991;22;99156;-76
2023/04/22 22:46:58;;;;;;;12.75;3.83;;;;;;;15.98;69.78;100387.78;12791936;22;97824;-76
2023/04/22 22:52:02;;;;;;;5.78;2.28;;;;;;;15.91;69.94;100392.63;12792067;22;99345;-76
2023/04/22 22:57:05;;;;;;;14.45;3.40;;;;;;;15.85;70.45;100389.47;12791550;22;98965;-76
2023/04/22 23:02:12;;;;;;;9.45;3.10;;;;;;;15.84;70.18;100385.97;12791037;22;98997;-76
2023/04/22 23:07:16;;;;;;;9.98;3.08;;;;;;;15.70;71.00;100388.56;12791306;22;98050;-76
2023/04/22 23:12:19;;;;;;;7.70;2.58;;;;;;;15.55;71.35;100392.13;12790178;22;99219;-76
2023/04/22 23:17:24;;;;;;;10.73;2.95;;;;;;;15.62;70.75;100401.44;12789040;22;99013;-76
2023/04/22 23:22:28;;;;;;;;;;;;;;;15.61;71.81;100402.34;12791103;22;98983;-76
2023/04/22 23:27:31;;;;;;;9.20;2.70;;;;;;;15.62;70.64;100390.81;12790113;22;98802;-76
2023/04/22 23:32:39;;;;;;;9.18;2.90;;;;;;;15.58;70.51;100391.94;12790897;22;99174;-75